sensor_id;sensor_type;location;lat;lon;timestamp;pressure;altitude;pressure_sealevel;temperature;humidity
36538;BME280;22545;48.892;9.138;2022-08-19T00:02:17;97629.91;;;20.72;100.00
36538;BME280;22545;48.892;9.138;2022-08-19T00:04:43;97628.94;;;20.73;100.00
36538;BME280;22545;48.892;9.138;2022-08-19T00:07:11;97624.94;;;20.68;100.00
36538;BME280;22545;48.892;9.138;2022-08-19T00:09:36;97626.78;;;20.88;100.00
36538;BME280;22545;48.892;9.138;2022-08-19T00:12:02;97619.81;;;20.98;100.00
36538;BME280;22545;48.892;9.138;2022-08-19T00:14:28;97619.91;;;20.86;100.00
36538;BME280;22545;48.892;9.138;2022-08-19T00:16:56;97621.44;;;20.89;100.00
36538;BME280;22545;48.892;9.138;2022-08-19T00:19:22;97623.34;;;20.87;100.00
36538;BME280;22545;48.892;9.138;2022-08-19T00:21:48;97624.16;;;20.78;100.00
36538;BME280;22545;48.892;9.138;2022-08-19T00:24:14;97629.13;;;20.81;100.00
36538;BME280;22545;48.892;9.138;2022-08-19T00:26:40;97624.44;;;20.75;100.00
36538;BME280;22545;48.892;9.138;2022-08-19T00:29:06;97625.66;;;20.80;100.00
36538;BME280;22545;48.892;9.138;2022-08-19T00:31:33;97632.25;;;20.75;100.00
36538;BME280;22545;48.892;9.138;2022-08-19T00:33:58;97614.41;;;20.59;100.00
36538;BME280;22545;48.892;9.138;2022-08-19T00:36:24;97620.56;;;20.79;100.00
36538;BME280;22545;48.892;9.138;2022-08-19T00:38:49;97611.25;;;20.86;100.00
36538;BME280;22545;48.892;9.138;2022-08-19T00:41:17;97605.56;;;20.71;100.00
36538;BME280;22545;48.892;9.138;2022-08-19T00:46:23;97591.28;;;20.85;100.00
36538;BME280;22545;48.892;9.138;2022-08-19T00:48:48;97585.25;;;20.84;100.00
36538;BME280;22545;48.892;9.138;2022-08-19T00:51:14;97588.03;;;20.93;100.00
36538;BME280;22545;48.892;9.138;2022-08-19T00:53:39;97589.78;;;20.92;100.00
36538;BME280;22545;48.892;9.138;2022-08-19T00:56:05;97594.44;;;20.79;100.00
36538;BME280;22545;48.892;9.138;2022-08-19T00:58:32;97598.22;;;20.65;100.00
36538;BME280;22545;48.892;9.138;2022-08-19T01:00:58;97611.22;;;20.76;100.00
36538;BME280;22545;48.892;9.138;2022-08-19T01:03:23;97608.94;;;20.62;100.00
36538;BME280;22545;48.892;9.138;2022-08-19T01:05:49;97616.88;;;20.81;100.00
36538;BME280;22545;48.892;9.138;2022-08-19T01:08:16;97619.41;;;20.93;100.00
36538;BME280;22545;48.892;9.138;2022-08-19T01:10:43;97619.66;;;20.90;100.00
36538;BME280;22545;48.892;9.138;2022-08-19T01:13:09;97601.78;;;20.64;100.00
36538;BME280;22545;48.892;9.138;2022-08-19T01:15:40;97621.84;;;20.84;100.00
36538;BME280;22545;48.892;9.138;2022-08-19T01:18:08;97609.16;;;20.70;100.00
36538;BME280;22545;48.892;9.138;2022-08-19T01:20:34;97621.63;;;20.66;100.00
36538;BME280;22545;48.892;9.138;2022-08-19T01:23:00;97619.06;;;20.76;100.00
36538;BME280;22545;48.892;9.138;2022-08-19T01:25:26;97619.63;;;20.59;100.00
36538;BME280;22545;48.892;9.138;2022-08-19T01:27:53;97610.78;;;20.71;100.00
36538;BME280;22545;48.892;9.138;2022-08-19T01:30:24;97611.03;;;20.68;100.00
36538;BME280;22545;48.892;9.138;2022-08-19T01:32:49;97614.28;;;20.60;100.00
36538;BME280;22545;48.892;9.138;2022-08-19T01:35:15;97615.63;;;20.55;100.00
36538;BME280;22545;48.892;9.138;2022-08-19T01:37:54;97609.31;;;20.57;100.00
36538;BME280;22545;48.892;9.138;2022-08-19T01:40:21;97612.22;;;20.64;100.00
36538;BME280;22545;48.892;9.138;2022-08-19T01:42:48;97595.19;;;20.60;100.00
36538;BME280;22545;48.892;9.138;2022-08-19T01:45:13;97596.53;;;20.64;100.00
36538;BME280;22545;48.892;9.138;2022-08-19T01:47:39;97598.00;;;20.47;100.00
36538;BME280;22545;48.892;9.138;2022-08-19T01:50:05;97603.09;;;20.48;100.00
36538;BME280;22545;48.892;9.138;2022-08-19T01:52:31;97603.94;;;20.49;100.00
36538;BME280;22545;48.892;9.138;2022-08-19T01:54:56;97592.97;;;20.55;100.00
36538;BME280;22545;48.892;9.138;2022-08-19T01:57:21;97593.09;;;20.54;100.00
36538;BME280;22545;48.892;9.138;2022-08-19T01:59:46;97589.75;;;20.51;100.00
36538;BME280;22545;48.892;9.138;2022-08-19T02:02:12;97589.63;;;20.53;100.00
36538;BME280;22545;48.892;9.138;2022-08-19T02:04:37;97600.00;;;20.33;100.00
36538;BME280;22545;48.892;9.138;2022-08-19T02:07:06;97599.34;;;20.41;100.00
36538;BME280;22545;48.892;9.138;2022-08-19T02:09:33;97610.69;;;20.30;100.00
36538;BME280;22545;48.892;9.138;2022-08-19T02:11:59;97617.19;;;20.36;100.00
36538;BME280;22545;48.892;9.138;2022-08-19T02:14:24;97617.47;;;20.33;100.00
36538;BME280;22545;48.892;9.138;2022-08-19T02:16:49;97617.19;;;20.36;100.00
36538;BME280;22545;48.892;9.138;2022-08-19T02:19:14;97611.53;;;20.31;100.00
36538;BME280;22545;48.892;9.138;2022-08-19T02:21:39;97606.75;;;20.36;100.00
36538;BME280;22545;48.892;9.138;2022-08-19T02:24:05;97603.88;;;20.39;100.00
36538;BME280;22545;48.892;9.138;2022-08-19T02:26:31;97599.06;;;20.13;100.00
36538;BME280;22545;48.892;9.138;2022-08-19T02:28:57;97600.34;;;20.19;100.00
36538;BME280;22545;48.892;9.138;2022-08-19T02:31:23;97609.41;;;20.25;100.00
36538;BME280;22545;48.892;9.138;2022-08-19T02:33:49;97605.97;;;20.14;100.00
36538;BME280;22545;48.892;9.138;2022-08-19T02:36:15;97607.16;;;20.10;100.00
36538;BME280;22545;48.892;9.138;2022-08-19T02:38:41;97607.97;;;20.11;100.00
36538;BME280;22545;48.892;9.138;2022-08-19T02:41:08;97607.59;;;20.15;100.00
36538;BME280;22545;48.892;9.138;2022-08-19T02:43:36;97604.22;;;20.04;100.00
36538;BME280;22545;48.892;9.138;2022-08-19T02:46:10;97609.56;;;20.02;100.00
36538;BME280;22545;48.892;9.138;2022-08-19T02:48:36;97610.84;;;20.08;100.00
36538;BME280;22545;48.892;9.138;2022-08-19T02:51:01;97599.84;;;20.04;100.00
36538;BME280;22545;48.892;9.138;2022-08-19T02:53:27;97601.69;;;19.92;100.00
36538;BME280;22545;48.892;9.138;2022-08-19T02:55:52;97604.34;;;20.02;100.00
36538;BME280;22545;48.892;9.138;2022-08-19T02:58:18;97599.25;;;20.01;100.00
36538;BME280;22545;48.892;9.138;2022-08-19T03:00:44;97607.22;;;19.99;100.00
36538;BME280;22545;48.892;9.138;2022-08-19T03:03:10;97597.28;;;19.93;100.00
36538;BME280;22545;48.892;9.138;2022-08-19T03:05:35;97596.34;;;19.94;100.00
36538;BME280;22545;48.892;9.138;2022-08-19T03:08:01;97596.91;;;19.97;100.00
36538;BME280;22545;48.892;9.138;2022-08-19T03:10:26;97595.41;;;19.95;100.00
36538;BME280;22545;48.892;9.138;2022-08-19T03:12:51;97593.84;;;19.92;100.00
36538;BME280;22545;48.892;9.138;2022-08-19T03:15:17;97598.94;;;19.94;100.00
36538;BME280;22545;48.892;9.138;2022-08-19T03:17:42;97607.72;;;19.93;100.00
36538;BME280;22545;48.892;9.138;2022-08-19T03:20:07;97607.72;;;19.93;100.00
36538;BME280;22545;48.892;9.138;2022-08-19T03:22:33;97608.44;;;19.95;100.00
36538;BME280;22545;48.892;9.138;2022-08-19T03:24:58;97624.66;;;19.77;100.00
36538;BME280;22545;48.892;9.138;2022-08-19T03:27:24;97623.31;;;19.83;100.00
36538;BME280;22545;48.892;9.138;2022-08-19T03:29:49;97617.97;;;19.85;100.00
36538;BME280;22545;48.892;9.138;2022-08-19T03:32:15;97617.63;;;19.78;100.00
36538;BME280;22545;48.892;9.138;2022-08-19T03:34:40;97614.31;;;19.76;100.00
36538;BME280;22545;48.892;9.138;2022-08-19T03:37:07;97611.47;;;19.79;100.00
36538;BME280;22545;48.892;9.138;2022-08-19T03:39:33;97611.94;;;19.73;100.00
36538;BME280;22545;48.892;9.138;2022-08-19T03:41:58;97617.63;;;19.78;100.00
36538;BME280;22545;48.892;9.138;2022-08-19T03:44:27;97625.50;;;19.67;100.00
36538;BME280;22545;48.892;9.138;2022-08-19T03:46:53;97615.38;;;19.73;100.00
36538;BME280;22545;48.892;9.138;2022-08-19T03:49:20;97617.06;;;19.63;100.00
36538;BME280;22545;48.892;9.138;2022-08-19T03:51:46;97607.75;;;19.60;100.00
36538;BME280;22545;48.892;9.138;2022-08-19T03:54:13;97612.72;;;19.52;100.00
36538;BME280;22545;48.892;9.138;2022-08-19T03:56:40;97608.00;;;19.57;100.00
36538;BME280;22545;48.892;9.138;2022-08-19T03:59:06;97608.50;;;19.51;100.00
36538;BME280;22545;48.892;9.138;2022-08-19T04:01:32;97616.50;;;19.59;100.00
36538;BME280;22545;48.892;9.138;2022-08-19T04:03:57;97613.84;;;19.50;100.00
36538;BME280;22545;48.892;9.138;2022-08-19T04:06:24;97615.94;;;19.56;100.00
36538;BME280;22545;48.892;9.138;2022-08-19T04:08:51;97616.88;;;19.55;100.00
36538;BME280;22545;48.892;9.138;2022-08-19T04:11:17;97615.03;;;19.45;100.00
36538;BME280;22545;48.892;9.138;2022-08-19T04:13:43;97619.75;;;19.52;100.00
36538;BME280;22545;48.892;9.138;2022-08-19T04:16:09;97615.03;;;19.45;100.00
36538;BME280;22545;48.892;9.138;2022-08-19T04:18:35;97631.25;;;19.49;100.00
36538;BME280;22545;48.892;9.138;2022-08-19T04:21:01;97620.91;;;19.59;100.00
36538;BME280;22545;48.892;9.138;2022-08-19T04:23:26;97621.84;;;19.58;100.00
36538;BME280;22545;48.892;9.138;2022-08-19T04:25:53;97619.25;;;19.58;100.00
36538;BME280;22545;48.892;9.138;2022-08-19T04:28:18;97618.16;;;19.60;100.00
36538;BME280;22545;48.892;9.138;2022-08-19T04:30:45;97615.94;;;19.56;100.00
36538;BME280;22545;48.892;9.138;2022-08-19T04:33:12;97625.03;;;19.61;100.00
36538;BME280;22545;48.892;9.138;2022-08-19T04:35:39;97615.56;;;19.60;100.00
36538;BME280;22545;48.892;9.138;2022-08-19T04:38:04;97610.59;;;19.57;100.00
36538;BME280;22545;48.892;9.138;2022-08-19T04:40:30;97605.75;;;19.53;100.00
36538;BME280;22545;48.892;9.138;2022-08-19T04:43:14;97606.97;;;19.70;100.00
36538;BME280;22545;48.892;9.138;2022-08-19T04:45:40;97618.34;;;19.69;100.00
36538;BME280;22545;48.892;9.138;2022-08-19T04:48:05;97614.56;;;19.73;100.00
36538;BME280;22545;48.892;9.138;2022-08-19T04:50:30;97613.13;;;19.80;100.00
36538;BME280;22545;48.892;9.138;2022-08-19T04:52:56;97627.47;;;19.74;100.00
36538;BME280;22545;48.892;9.138;2022-08-19T04:55:21;97628.16;;;19.76;100.00
36538;BME280;22545;48.892;9.138;2022-08-19T04:57:46;97632.22;;;19.80;100.00
36538;BME280;22545;48.892;9.138;2022-08-19T05:00:12;97630.44;;;19.81;100.00
36538;BME280;22545;48.892;9.138;2022-08-19T05:02:37;97621.31;;;19.75;100.00
36538;BME280;22545;48.892;9.138;2022-08-19T05:05:03;97633.16;;;19.79;100.00
36538;BME280;22545;48.892;9.138;2022-08-19T05:07:28;97635.66;;;19.81;100.00
36538;BME280;22545;48.892;9.138;2022-08-19T05:09:54;97642.03;;;19.88;100.00
36538;BME280;22545;48.892;9.138;2022-08-19T05:12:20;97639.44;;;19.77;100.00
36538;BME280;22545;48.892;9.138;2022-08-19T05:14:45;97643.44;;;19.92;100.00
36538;BME280;22545;48.892;9.138;2022-08-19T05:17:14;97645.41;;;19.79;100.00
36538;BME280;22545;48.892;9.138;2022-08-19T05:19:39;97649.16;;;19.75;100.00
36538;BME280;22545;48.892;9.138;2022-08-19T05:22:23;97659.41;;;19.67;100.00
36538;BME280;22545;48.892;9.138;2022-08-19T05:24:58;97660.31;;;19.77;100.00
36538;BME280;22545;48.892;9.138;2022-08-19T05:27:23;97658.44;;;19.79;100.00
36538;BME280;22545;48.892;9.138;2022-08-19T05:29:48;97664.81;;;19.86;100.00
36538;BME280;22545;48.892;9.138;2022-08-19T05:32:14;97675.25;;;19.86;100.00
36538;BME280;22545;48.892;9.138;2022-08-19T05:34:39;97679.41;;;19.89;100.00
36538;BME280;22545;48.892;9.138;2022-08-19T05:37:05;97696.25;;;19.85;100.00
36538;BME280;22545;48.892;9.138;2022-08-19T05:39:31;97702.19;;;19.75;100.00
36538;BME280;22545;48.892;9.138;2022-08-19T05:42:02;97700.59;;;19.95;100.00
36538;BME280;22545;48.892;9.138;2022-08-19T05:44:29;97712.03;;;19.83;100.00
36538;BME280;22545;48.892;9.138;2022-08-19T05:46:58;97723.19;;;19.74;100.00
36538;BME280;22545;48.892;9.138;2022-08-19T05:49:24;97723.59;;;20.02;100.00
36538;BME280;22545;48.892;9.138;2022-08-19T05:51:50;97725.78;;;19.85;100.00
36538;BME280;22545;48.892;9.138;2022-08-19T05:54:16;97719.63;;;19.75;100.00
36538;BME280;22545;48.892;9.138;2022-08-19T05:56:41;97724.13;;;19.84;100.00
36538;BME280;22545;48.892;9.138;2022-08-19T05:59:07;97728.28;;;19.87;100.00
36538;BME280;22545;48.892;9.138;2022-08-19T06:01:34;97725.63;;;19.98;100.00
36538;BME280;22545;48.892;9.138;2022-08-19T06:04:00;97724.22;;;19.94;100.00
36538;BME280;22545;48.892;9.138;2022-08-19T06:06:25;97722.09;;;19.88;100.00
36538;BME280;22545;48.892;9.138;2022-08-19T06:08:50;97712.13;;;19.93;100.00
36538;BME280;22545;48.892;9.138;2022-08-19T06:11:17;97709.13;;;19.97;100.00
36538;BME280;22545;48.892;9.138;2022-08-19T06:13:43;97714.31;;;20.09;100.00
36538;BME280;22545;48.892;9.138;2022-08-19T06:16:12;97719.28;;;20.12;100.00
36538;BME280;22545;48.892;9.138;2022-08-19T06:18:37;97720.75;;;20.05;100.00
36538;BME280;22545;48.892;9.138;2022-08-19T06:21:02;97722.72;;;20.12;100.00
36538;BME280;22545;48.892;9.138;2022-08-19T06:23:29;97719.72;;;20.17;100.00
36538;BME280;22545;48.892;9.138;2022-08-19T06:25:54;97715.72;;;20.13;100.00
36538;BME280;22545;48.892;9.138;2022-08-19T06:28:19;97722.41;;;20.06;100.00
36538;BME280;22545;48.892;9.138;2022-08-19T06:30:45;97717.25;;;20.15;100.00
36538;BME280;22545;48.892;9.138;2022-08-19T06:33:11;97708.28;;;20.08;100.00
36538;BME280;22545;48.892;9.138;2022-08-19T06:35:40;97704.19;;;20.15;100.00
36538;BME280;22545;48.892;9.138;2022-08-19T06:38:05;97710.88;;;20.08;100.00
36538;BME280;22545;48.892;9.138;2022-08-19T06:40:30;97712.22;;;20.03;100.00
36538;BME280;22545;48.892;9.138;2022-08-19T06:42:56;97718.41;;;20.23;100.00
36538;BME280;22545;48.892;9.138;2022-08-19T06:45:24;97718.97;;;20.26;100.00
36538;BME280;22545;48.892;9.138;2022-08-19T06:47:49;97710.69;;;20.42;100.00
36538;BME280;22545;48.892;9.138;2022-08-19T06:50:14;97719.81;;;20.27;100.00
36538;BME280;22545;48.892;9.138;2022-08-19T06:52:39;97716.06;;;20.41;100.00
36538;BME280;22545;48.892;9.138;2022-08-19T06:55:05;97719.44;;;20.52;100.00
36538;BME280;22545;48.892;9.138;2022-08-19T06:57:31;97719.69;;;20.49;100.00
36538;BME280;22545;48.892;9.138;2022-08-19T06:59:58;97727.69;;;20.58;100.00
36538;BME280;22545;48.892;9.138;2022-08-19T07:02:24;97719.59;;;20.61;100.00
36538;BME280;22545;48.892;9.138;2022-08-19T07:04:51;97707.25;;;20.63;100.00
36538;BME280;22545;48.892;9.138;2022-08-19T07:07:16;97709.13;;;20.72;100.00
36538;BME280;22545;48.892;9.138;2022-08-19T07:09:42;97714.44;;;20.92;100.00
36538;BME280;22545;48.892;9.138;2022-08-19T07:12:09;97716.25;;;20.91;100.00
36538;BME280;22545;48.892;9.138;2022-08-19T07:14:34;97719.81;;;20.90;100.00
36538;BME280;22545;48.892;9.138;2022-08-19T07:17:04;97718.53;;;20.84;100.00
36538;BME280;22545;48.892;9.138;2022-08-19T07:19:29;97726.56;;;20.93;100.00
36538;BME280;22545;48.892;9.138;2022-08-19T07:21:55;97725.09;;;20.79;100.00
36538;BME280;22545;48.892;9.138;2022-08-19T07:24:21;97725.81;;;20.81;100.00
36538;BME280;22545;48.892;9.138;2022-08-19T07:26:48;97729.63;;;20.77;100.00
36538;BME280;22545;48.892;9.138;2022-08-19T07:29:15;97733.53;;;20.82;100.00
36538;BME280;22545;48.892;9.138;2022-08-19T07:31:41;97738.50;;;20.85;100.00
36538;BME280;22545;48.892;9.138;2022-08-19T07:34:08;97726.97;;;20.88;100.00
36538;BME280;22545;48.892;9.138;2022-08-19T07:36:34;97730.06;;;20.82;100.00
36538;BME280;22545;48.892;9.138;2022-08-19T07:39:00;97742.16;;;20.73;100.00
36538;BME280;22545;48.892;9.138;2022-08-19T07:41:27;97742.31;;;20.81;100.00
36538;BME280;22545;48.892;9.138;2022-08-19T07:43:54;97742.19;;;20.83;100.00
36538;BME280;22545;48.892;9.138;2022-08-19T07:46:19;97740.63;;;20.71;100.00
36538;BME280;22545;48.892;9.138;2022-08-19T07:48:45;97744.03;;;20.71;100.00
36538;BME280;22545;48.892;9.138;2022-08-19T07:51:12;97737.88;;;20.72;100.00
36538;BME280;22545;48.892;9.138;2022-08-19T07:53:37;97749.88;;;20.63;100.00
36538;BME280;22545;48.892;9.138;2022-08-19T07:56:03;97741.91;;;20.65;100.00
36538;BME280;22545;48.892;9.138;2022-08-19T07:58:32;97739.94;;;20.68;100.00
36538;BME280;22545;48.892;9.138;2022-08-19T08:00:58;97752.19;;;20.57;100.00
36538;BME280;22545;48.892;9.138;2022-08-19T08:03:24;97744.91;;;20.72;100.00
36538;BME280;22545;48.892;9.138;2022-08-19T08:06:09;97744.44;;;20.66;100.00
36538;BME280;22545;48.892;9.138;2022-08-19T08:08:53;97750.97;;;20.61;100.00
36538;BME280;22545;48.892;9.138;2022-08-19T08:11:41;97743.09;;;20.72;100.00
36538;BME280;22545;48.892;9.138;2022-08-19T08:14:07;97747.13;;;20.76;100.00
36538;BME280;22545;48.892;9.138;2022-08-19T08:16:33;97754.25;;;20.74;100.00
36538;BME280;22545;48.892;9.138;2022-08-19T08:18:59;97760.03;;;20.57;100.00
36538;BME280;22545;48.892;9.138;2022-08-19T08:21:25;97759.56;;;20.51;100.00
36538;BME280;22545;48.892;9.138;2022-08-19T08:23:50;97758.38;;;20.56;100.00
36538;BME280;22545;48.892;9.138;2022-08-19T08:26:17;97757.09;;;20.50;100.00
36538;BME280;22545;48.892;9.138;2022-08-19T08:28:42;97756.19;;;20.61;100.00
36538;BME280;22545;48.892;9.138;2022-08-19T08:31:07;97765.44;;;20.65;100.00
36538;BME280;22545;48.892;9.138;2022-08-19T08:33:32;97769.50;;;20.58;100.00
36538;BME280;22545;48.892;9.138;2022-08-19T08:35:58;97761.63;;;20.48;100.00
36538;BME280;22545;48.892;9.138;2022-08-19T08:38:23;97761.66;;;20.58;100.00
36538;BME280;22545;48.892;9.138;2022-08-19T08:40:49;97758.81;;;20.61;100.00
36538;BME280;22545;48.892;9.138;2022-08-19T08:43:22;97755.88;;;20.54;100.00
36538;BME280;22545;48.892;9.138;2022-08-19T08:46:36;97757.72;;;20.63;100.00
36538;BME280;22545;48.892;9.138;2022-08-19T08:49:20;97767.34;;;20.63;100.00
36538;BME280;22545;48.892;9.138;2022-08-19T08:51:26;97755.50;;;20.59;100.00
36538;BME280;22545;48.892;9.138;2022-08-19T08:53:53;97759.78;;;20.60;100.00
36538;BME280;22545;48.892;9.138;2022-08-19T08:56:19;97759.91;;;20.58;100.00
36538;BME280;22545;48.892;9.138;2022-08-19T08:58:48;97745.25;;;20.67;100.00
36538;BME280;22545;48.892;9.138;2022-08-19T09:01:16;97750.94;;;20.72;100.00
36538;BME280;22545;48.892;9.138;2022-08-19T09:03:42;97744.00;;;20.82;100.00
36538;BME280;22545;48.892;9.138;2022-08-19T09:06:17;97749.13;;;20.94;100.00
36538;BME280;22545;48.892;9.138;2022-08-19T09:11:12;97749.34;;;21.12;100.00
36538;BME280;22545;48.892;9.138;2022-08-19T09:16:21;97750.69;;;21.37;100.00
36538;BME280;22545;48.892;9.138;2022-08-19T09:18:50;97744.19;;;21.62;100.00
36538;BME280;22545;48.892;9.138;2022-08-19T09:21:22;97749.16;;;21.65;100.00
36538;BME280;22545;48.892;9.138;2022-08-19T09:23:48;97756.34;;;21.92;100.00
36538;BME280;22545;48.892;9.138;2022-08-19T09:26:14;97755.91;;;21.87;100.00
36538;BME280;22545;48.892;9.138;2022-08-19T09:28:40;97761.72;;;21.91;100.00
36538;BME280;22545;48.892;9.138;2022-08-19T09:31:12;97760.50;;;21.95;100.00
36538;BME280;22545;48.892;9.138;2022-08-19T09:33:38;97764.88;;;21.95;100.00
36538;BME280;22545;48.892;9.138;2022-08-19T09:36:07;97763.91;;;21.76;100.00
36538;BME280;22545;48.892;9.138;2022-08-19T09:38:33;97763.91;;;21.86;100.00
36538;BME280;22545;48.892;9.138;2022-08-19T09:41:18;97764.84;;;21.75;100.00
36538;BME280;22545;48.892;9.138;2022-08-19T09:43:45;97763.91;;;21.86;100.00
36538;BME280;22545;48.892;9.138;2022-08-19T09:46:10;97754.94;;;21.69;100.00
36538;BME280;22545;48.892;9.138;2022-08-19T09:48:36;97761.66;;;21.62;100.00
36538;BME280;22545;48.892;9.138;2022-08-19T09:51:05;97759.22;;;21.70;100.00
36538;BME280;22545;48.892;9.138;2022-08-19T09:53:33;97765.25;;;21.70;100.00
36538;BME280;22545;48.892;9.138;2022-08-19T09:55:58;97761.81;;;21.70;100.00
36538;BME280;22545;48.892;9.138;2022-08-19T09:58:23;97766.66;;;21.74;100.00
36538;BME280;22545;48.892;9.138;2022-08-19T10:00:56;97767.47;;;21.75;100.00
36538;BME280;22545;48.892;9.138;2022-08-19T10:03:22;97768.44;;;21.74;100.00
36538;BME280;22545;48.892;9.138;2022-08-19T10:05:48;97770.91;;;21.66;100.00
36538;BME280;22545;48.892;9.138;2022-08-19T10:08:13;97771.88;;;21.74;100.00
36538;BME280;22545;48.892;9.138;2022-08-19T10:10:42;97773.69;;;21.84;100.00
36538;BME280;22545;48.892;9.138;2022-08-19T10:13:10;97765.03;;;21.83;100.00
36538;BME280;22545;48.892;9.138;2022-08-19T10:15:36;97759.66;;;21.95;100.00
36538;BME280;22545;48.892;9.138;2022-08-19T10:18:04;97759.53;;;22.06;100.00
36538;BME280;22545;48.892;9.138;2022-08-19T10:20:30;97762.69;;;22.00;100.00
36538;BME280;22545;48.892;9.138;2022-08-19T10:22:55;97766.03;;;22.12;100.00
36538;BME280;22545;48.892;9.138;2022-08-19T10:25:20;97762.28;;;22.04;100.00
36538;BME280;22545;48.892;9.138;2022-08-19T10:27:45;97755.38;;;22.03;100.00
36538;BME280;22545;48.892;9.138;2022-08-19T10:30:11;97754.00;;;22.19;100.00
36538;BME280;22545;48.892;9.138;2022-08-19T10:32:36;97750.84;;;22.25;100.00
36538;BME280;22545;48.892;9.138;2022-08-19T10:35:03;97759.69;;;22.24;100.00
36538;BME280;22545;48.892;9.138;2022-08-19T10:37:30;97754.69;;;22.31;100.00
36538;BME280;22545;48.892;9.138;2022-08-19T10:39:58;97752.13;;;22.40;100.00
36538;BME280;22545;48.892;9.138;2022-08-19T10:42:23;97747.94;;;22.48;100.00
36538;BME280;22545;48.892;9.138;2022-08-19T10:44:48;97745.31;;;22.48;100.00
36538;BME280;22545;48.892;9.138;2022-08-19T10:47:14;97732.38;;;22.56;100.00
36538;BME280;22545;48.892;9.138;2022-08-19T10:49:40;97734.81;;;22.67;100.00
36538;BME280;22545;48.892;9.138;2022-08-19T10:52:25;97744.22;;;22.60;100.00
36538;BME280;22545;48.892;9.138;2022-08-19T10:55:01;97739.53;;;22.73;100.00
36538;BME280;22545;48.892;9.138;2022-08-19T10:57:44;97746.69;;;22.71;100.00
36538;BME280;22545;48.892;9.138;2022-08-19T11:00:10;97743.19;;;22.80;100.00
36538;BME280;22545;48.892;9.138;2022-08-19T11:02:35;97748.88;;;22.76;100.00
36538;BME280;22545;48.892;9.138;2022-08-19T11:05:01;97752.72;;;22.82;100.00
36538;BME280;22545;48.892;9.138;2022-08-19T11:07:26;97740.72;;;22.89;100.00
36538;BME280;22545;48.892;9.138;2022-08-19T11:09:51;97746.34;;;22.94;100.00
36538;BME280;22545;48.892;9.138;2022-08-19T11:12:16;97741.50;;;22.99;100.00
36538;BME280;22545;48.892;9.138;2022-08-19T11:14:42;97742.56;;;23.06;100.00
36538;BME280;22545;48.892;9.138;2022-08-19T11:17:07;97742.06;;;23.12;100.00
36538;BME280;22545;48.892;9.138;2022-08-19T11:19:33;97739.50;;;23.21;100.00
36538;BME280;22545;48.892;9.138;2022-08-19T11:21:58;97743.25;;;23.18;100.00
36538;BME280;22545;48.892;9.138;2022-08-19T11:24:27;97749.63;;;23.06;100.00
36538;BME280;22545;48.892;9.138;2022-08-19T11:26:54;97736.50;;;23.15;100.00
36538;BME280;22545;48.892;9.138;2022-08-19T11:29:24;97731.03;;;22.99;100.00
36538;BME280;22545;48.892;9.138;2022-08-19T11:31:51;97732.91;;;23.17;100.00
36538;BME280;22545;48.892;9.138;2022-08-19T11:34:17;97727.13;;;23.03;100.00
36538;BME280;22545;48.892;9.138;2022-08-19T11:36:44;97736.94;;;23.11;100.00
36538;BME280;22545;48.892;9.138;2022-08-19T11:39:10;97739.94;;;23.06;100.00
36538;BME280;22545;48.892;9.138;2022-08-19T11:41:36;97743.56;;;22.95;100.00
36538;BME280;22545;48.892;9.138;2022-08-19T11:44:02;97740.00;;;22.87;100.00
36538;BME280;22545;48.892;9.138;2022-08-19T11:46:28;97738.53;;;22.84;100.00
36538;BME280;22545;48.892;9.138;2022-08-19T11:48:57;97738.91;;;22.89;100.00
36538;BME280;22545;48.892;9.138;2022-08-19T11:51:24;97741.13;;;22.84;100.00
36538;BME280;22545;48.892;9.138;2022-08-19T11:53:49;97735.91;;;22.84;100.00
36538;BME280;22545;48.892;9.138;2022-08-19T11:56:15;97735.72;;;22.95;100.00
36538;BME280;22545;48.892;9.138;2022-08-19T11:58:41;97740.88;;;22.77;100.00
36538;BME280;22545;48.892;9.138;2022-08-19T12:01:09;97746.19;;;22.95;100.00
36538;BME280;22545;48.892;9.138;2022-08-19T12:03:36;97743.47;;;22.87;100.00
36538;BME280;22545;48.892;9.138;2022-08-19T12:06:05;97734.47;;;22.90;100.00
36538;BME280;22545;48.892;9.138;2022-08-19T12:08:31;97741.06;;;23.04;100.00
36538;BME280;22545;48.892;9.138;2022-08-19T12:10:56;97735.56;;;22.97;100.00
36538;BME280;22545;48.892;9.138;2022-08-19T12:13:21;97734.44;;;23.09;100.00
36538;BME280;22545;48.892;9.138;2022-08-19T12:15:47;97727.25;;;23.02;100.00
36538;BME280;22545;48.892;9.138;2022-08-19T12:18:12;97723.97;;;23.00;100.00
36538;BME280;22545;48.892;9.138;2022-08-19T12:20:40;97725.19;;;23.15;100.00
36538;BME280;22545;48.892;9.138;2022-08-19T12:23:05;97727.13;;;23.13;100.00
36538;BME280;22545;48.892;9.138;2022-08-19T12:25:31;97721.16;;;23.21;100.00
36538;BME280;22545;48.892;9.138;2022-08-19T12:27:57;97719.84;;;23.35;100.00
36538;BME280;22545;48.892;9.138;2022-08-19T12:30:22;97716.50;;;23.60;100.00
36538;BME280;22545;48.892;9.138;2022-08-19T12:32:47;97714.78;;;23.51;100.00
36538;BME280;22545;48.892;9.138;2022-08-19T12:35:12;97724.81;;;23.56;100.00
36538;BME280;22545;48.892;9.138;2022-08-19T12:37:38;97721.53;;;23.54;100.00
36538;BME280;22545;48.892;9.138;2022-08-19T12:40:04;97717.88;;;23.64;100.00
36538;BME280;22545;48.892;9.138;2022-08-19T12:42:30;97713.03;;;23.42;100.00
36538;BME280;22545;48.892;9.138;2022-08-19T12:44:55;97723.69;;;23.40;100.00
36538;BME280;22545;48.892;9.138;2022-08-19T12:47:20;97715.50;;;23.43;100.00
36538;BME280;22545;48.892;9.138;2022-08-19T12:49:46;97723.00;;;23.38;100.00
36538;BME280;22545;48.892;9.138;2022-08-19T12:52:12;97719.91;;;23.25;100.00
36538;BME280;22545;48.892;9.138;2022-08-19T12:54:40;97732.22;;;23.05;100.00
36538;BME280;22545;48.892;9.138;2022-08-19T12:57:06;97716.78;;;23.02;100.00